createdAt,value
2023-05-06T00:12:29.948Z,100.00
2023-05-06T00:27:31.639Z,100.00
2023-05-06T00:42:33.400Z,100.00
2023-05-06T00:57:35.579Z,100.00
2023-05-06T01:12:44.185Z,100.00
2023-05-06T01:27:46.038Z,100.00
2023-05-06T01:42:51.575Z,100.00
2023-05-06T01:57:55.006Z,100.00
2023-05-06T02:12:57.139Z,100.00
2023-05-06T02:27:58.789Z,100.00
2023-05-06T02:43:00.525Z,100.00
2023-05-06T02:58:02.423Z,100.00
2023-05-06T03:13:04.133Z,100.00
2023-05-06T03:28:06.136Z,100.00
2023-05-06T03:43:07.962Z,100.00
2023-05-06T03:58:09.707Z,100.00
2023-05-06T04:13:11.448Z,100.00
2023-05-06T04:28:13.128Z,100.00
2023-05-06T04:43:15.039Z,100.00
2023-05-06T04:58:16.836Z,100.00
2023-05-06T05:13:19.320Z,100.00
2023-05-06T05:28:21.002Z,100.00
2023-05-06T05:43:25.961Z,100.00
2023-05-06T05:58:27.654Z,100.00
2023-05-06T06:13:29.647Z,95.71
2023-05-06T06:28:31.624Z,95.64
2023-05-06T06:43:33.381Z,92.83
2023-05-06T06:58:35.059Z,94.00
2023-05-06T07:13:37.062Z,91.73
2023-05-06T07:28:38.721Z,92.37
2023-05-06T07:43:40.392Z,90.16
2023-05-06T07:58:42.094Z,86.07
2023-05-06T08:13:43.813Z,83.41
2023-05-06T08:28:45.586Z,80.22
2023-05-06T08:43:49.146Z,79.64
2023-05-06T08:58:52.139Z,78.63
2023-05-06T09:14:17.242Z,76.82
2023-05-06T09:29:18.885Z,72.78
2023-05-06T09:44:23.320Z,72.94
2023-05-06T09:59:26.112Z,72.93
2023-05-06T10:14:27.949Z,70.22
2023-05-06T10:29:29.551Z,70.17
2023-05-06T10:44:51.275Z,68.97
2023-05-06T10:59:55.596Z,66.85
2023-05-06T11:15:35.848Z,66.78
2023-05-06T11:30:41.671Z,60.58
2023-05-06T11:45:46.403Z,59.61
2023-05-06T12:00:54.600Z,57.71
2023-05-06T12:15:59.072Z,57.66
2023-05-06T12:31:28.724Z,58.09
2023-05-06T12:46:30.662Z,56.67
2023-05-06T13:01:32.540Z,57.14
2023-05-06T13:16:35.402Z,59.23
2023-05-06T13:31:37.204Z,59.34
2023-05-06T13:46:38.962Z,60.07
2023-05-06T14:01:41.576Z,59.06
2023-05-06T14:16:43.728Z,58.94
2023-05-06T14:31:45.615Z,58.40
2023-05-06T14:46:47.398Z,57.12
2023-05-06T15:01:49.052Z,58.50
2023-05-06T15:16:50.790Z,57.15
2023-05-06T15:31:53.028Z,57.95
2023-05-06T15:46:54.690Z,58.60
2023-05-06T16:17:01.329Z,59.84
2023-05-06T16:32:03.478Z,60.18
2023-05-06T16:47:05.875Z,59.79
2023-05-06T17:02:07.699Z,60.27
2023-05-06T17:17:10.302Z,63.79
2023-05-06T17:32:12.042Z,65.04
2023-05-06T17:47:13.732Z,66.90
2023-05-06T18:02:16.095Z,68.03
2023-05-06T18:17:17.752Z,67.76
2023-05-06T18:32:19.256Z,68.13
2023-05-06T18:47:20.996Z,68.46
2023-05-06T19:02:22.956Z,68.03
2023-05-06T19:17:24.659Z,68.47
2023-05-06T19:32:26.428Z,69.28
2023-05-06T19:47:29.692Z,68.47
2023-05-06T20:02:31.722Z,67.58
2023-05-06T20:17:34.714Z,67.84
2023-05-06T20:32:37.455Z,67.69
2023-05-06T20:47:39.190Z,68.33
2023-05-06T21:02:42.253Z,67.80
2023-05-06T21:17:44.213Z,67.99
2023-05-06T21:32:46.562Z,68.01
2023-05-06T21:47:49.625Z,68.47
2023-05-06T22:02:53.110Z,68.23
2023-05-06T22:17:55.288Z,68.79
2023-05-06T22:32:57.738Z,68.93
2023-05-06T22:47:59.390Z,68.87
2023-05-06T23:03:01.093Z,69.81
2023-05-06T23:18:02.923Z,71.80
2023-05-06T23:33:04.652Z,75.89
2023-05-06T23:48:06.621Z,77.98
